Time,TemperatureF,DewpointF,PressureIn,WindDirection,WindDirectionDegrees,WindSpeedMPH,WindSpeedGustMPH,Humidity,HourlyPrecipIn,Conditions,Clouds,dailyrainin,SoftwareType,DateUTC
2013-04-03 00:05:00,59.0,52.5,29.62,ESE,112,0.0,0.0,79,0.00,,,0.00,VWS V14.01,2013-04-02 21:05:00,
2013-04-03 00:10:00,59.2,52.7,29.61,ESE,112,0.0,0.0,79,0.00,,,0.00,VWS V14.01,2013-04-02 21:10:00,
2013-04-03 00:15:00,59.4,52.5,29.61,South,180,0.0,0.0,78,0.00,,,0.00,VWS V14.01,2013-04-02 21:15:00,
2013-04-03 00:20:00,60.1,52.8,29.61,SSW,202,0.0,1.1,77,0.00,,,0.00,VWS V14.01,2013-04-02 21:20:00,
2013-04-03 00:25:00,60.8,52.8,29.60,SSW,202,0.0,0.0,75,0.00,,,0.00,VWS V14.01,2013-04-02 21:25:00,
2013-04-03 00:31:00,61.3,52.5,29.60,SSW,202,0.0,0.0,73,0.00,,,0.00,VWS V14.01,2013-04-02 21:31:00,
2013-04-03 00:37:00,61.5,52.4,29.60,SSW,202,0.0,0.0,72,0.00,,,0.00,VWS V14.01,2013-04-02 21:37:00,
2013-04-03 00:43:00,61.7,52.2,29.60,SSW,202,0.0,0.0,71,0.00,,,0.00,VWS V14.01,2013-04-02 21:43:00,
2013-04-03 00:48:00,61.7,52.2,29.60,SW,225,0.0,0.0,71,0.00,,,0.00,VWS V14.01,2013-04-02 21:48:00,
2013-04-03 00:53:00,61.7,52.2,29.60,SW,225,4.6,4.6,71,0.00,,,0.00,VWS V14.01,2013-04-02 21:53:00,
2013-04-03 00:58:00,61.9,52.4,29.60,SW,225,0.0,0.0,71,0.00,,,0.00,VWS V14.01,2013-04-02 21:58:00,
2013-04-03 01:04:00,61.9,52.4,29.60,West,270,0.0,0.0,71,0.00,,,0.00,VWS V14.01,2013-04-02 22:04:00,
2013-04-03 01:09:00,61.9,52.4,29.60,West,270,0.0,0.0,71,0.00,,,0.00,VWS V14.01,2013-04-02 22:09:00,
2013-04-03 01:14:00,61.9,52.4,29.60,West,270,0.6,0.6,71,0.00,,,0.00,VWS V14.01,2013-04-02 22:14:00,
2013-04-03 01:19:00,61.9,52.4,29.60,West,270,0.0,0.0,71,0.00,,,0.00,VWS V14.01,2013-04-02 22:19:00,
2013-04-03 01:24:00,61.9,52.4,29.60,West,270,0.0,0.0,71,0.00,,,0.00,VWS V14.01,2013-04-02 22:24:00,
2013-04-03 01:29:00,61.7,52.5,29.59,WSW,248,0.0,0.0,72,0.00,,,0.00,VWS V14.01,2013-04-02 22:29:00,
2013-04-03 01:34:00,61.5,52.4,29.59,WSW,248,0.0,0.0,72,0.00,,,0.00,VWS V14.01,2013-04-02 22:34:00,
2013-04-03 01:39:00,61.3,52.5,29.58,WSW,248,0.0,0.0,73,0.00,,,0.00,VWS V14.01,2013-04-02 22:39:00,
2013-04-03 01:44:00,61.3,52.9,29.58,WSW,248,0.0,0.0,74,0.00,,,0.00,VWS V14.01,2013-04-02 22:44:00,
2013-04-03 01:49:00,61.3,52.9,29.58,WSW,248,2.2,2.2,74,0.00,,,0.00,VWS V14.01,2013-04-02 22:49:00,
2013-04-03 01:54:00,61.5,53.1,29.58,South,180,0.0,0.0,74,0.00,,,0.00,VWS V14.01,2013-04-02 22:54:00,
2013-04-03 02:00:00,61.5,53.1,29.58,SSE,158,0.0,0.0,74,0.00,,,0.00,VWS V14.01,2013-04-02 23:00:00,
2013-04-03 02:05:00,61.3,52.9,29.57,SSE,158,0.0,0.0,74,0.00,,,0.00,VWS V14.01,2013-04-02 23:05:00,
2013-04-03 02:10:00,61.2,53.2,29.58,South,180,0.0,0.0,75,0.00,,,0.00,VWS V14.01,2013-04-02 23:10:00,
2013-04-03 02:15:00,61.0,53.0,29.58,South,180,0.0,0.0,75,0.00,,,0.00,VWS V14.01,2013-04-02 23:15:00,
2013-04-03 02:20:00,61.0,53.0,29.57,South,180,0.0,0.0,75,0.00,,,0.00,VWS V14.01,2013-04-02 23:20:00,
2013-04-03 02:25:00,61.0,53.3,29.57,SSW,202,0.0,0.0,76,0.00,,,0.00,VWS V14.01,2013-04-02 23:25:00,
2013-04-03 02:30:00,61.0,53.3,29.55,SSW,202,0.0,0.0,76,0.00,,,0.00,VWS V14.01,2013-04-02 23:30:00,
2013-04-03 02:35:00,60.8,53.2,29.55,South,180,0.0,0.0,76,0.00,,,0.00,VWS V14.01,2013-04-02 23:35:00,
2013-04-03 02:41:00,60.6,53.0,29.55,South,180,0.0,0.0,76,0.00,,,0.00,VWS V14.01,2013-04-02 23:41:00,
2013-04-03 02:46:00,60.4,52.8,29.55,South,180,0.0,0.0,76,0.00,,,0.00,VWS V14.01,2013-04-02 23:46:00,
2013-04-03 02:51:00,60.1,52.5,29.54,South,180,0.0,0.0,76,0.00,,,0.00,VWS V14.01,2013-04-02 23:51:00,
2013-04-03 02:57:00,59.9,52.6,29.54,South,180,0.0,0.0,77,0.00,,,0.00,VWS V14.01,2013-04-02 23:57:00,
2013-04-03 03:03:00,59.7,52.5,29.53,South,180,0.0,0.0,77,0.00,,,0.00,VWS V14.01,2013-04-03 00:03:00,
2013-04-03 03:08:00,59.4,52.2,29.53,South,180,0.0,0.0,77,0.00,,,0.00,VWS V14.01,2013-04-03 00:08:00,
2013-04-03 03:13:00,59.4,52.5,29.52,South,180,0.0,0.0,78,0.00,,,0.00,VWS V14.01,2013-04-03 00:13:00,
2013-04-03 03:18:00,59.4,52.5,29.51,South,180,0.0,0.0,78,0.00,,,0.00,VWS V14.01,2013-04-03 00:18:00,
2013-04-03 03:23:00,59.0,52.5,29.51,South,180,0.0,0.0,79,0.00,,,0.00,VWS V14.01,2013-04-03 00:23:00,
2013-04-03 03:29:00,59.0,52.5,29.50,South,180,0.0,0.0,79,0.00,,,0.00,VWS V14.01,2013-04-03 00:29:00,
2013-04-03 03:34:00,58.8,52.3,29.51,South,180,0.0,0.0,79,0.00,,,0.00,VWS V14.01,2013-04-03 00:34:00,
2013-04-03 03:39:00,59.0,52.5,29.51,South,180,0.0,0.0,79,0.00,,,0.00,VWS V14.01,2013-04-03 00:39:00,
2013-04-03 03:44:00,59.0,52.5,29.51,South,180,0.0,0.0,79,0.00,,,0.00,VWS V14.01,2013-04-03 00:44:00,
2013-04-03 03:49:00,59.0,52.5,29.51,South,180,0.0,0.0,79,0.00,,,0.00,VWS V14.01,2013-04-03 00:49:00,
2013-04-03 03:54:00,59.0,52.5,29.51,South,180,0.0,0.0,79,0.00,,,0.00,VWS V14.01,2013-04-03 00:54:00,
2013-04-03 04:00:00,59.0,52.5,29.51,South,180,0.0,0.0,79,0.00,,,0.00,VWS V14.01,2013-04-03 01:00:00,
2013-04-03 04:05:00,59.0,52.5,29.51,South,180,0.0,0.0,79,0.00,,,0.00,VWS V14.01,2013-04-03 01:05:00,
2013-04-03 04:11:00,58.6,52.4,29.55,South,180,0.0,0.0,80,0.00,,,0.00,VWS V14.01,2013-04-03 01:11:00,
2013-04-03 04:16:00,59.0,52.8,29.57,South,180,0.0,0.0,80,0.00,,,0.00,VWS V14.01,2013-04-03 01:16:00,
2013-04-03 04:22:00,59.2,53.0,29.58,SSW,202,0.0,0.0,80,0.00,,,0.00,VWS V14.01,2013-04-03 01:22:00,
2013-04-03 04:27:00,59.4,53.2,29.57,West,270,0.0,0.0,80,0.00,,,0.00,VWS V14.01,2013-04-03 01:27:00,
2013-04-03 04:32:00,60.1,53.9,29.56,West,270,0.0,0.0,80,0.00,,,0.00,VWS V14.01,2013-04-03 01:32:00,
2013-04-03 04:37:00,60.3,54.1,29.55,West,270,0.0,0.0,80,0.00,,,0.00,VWS V14.01,2013-04-03 01:37:00,
2013-04-03 04:42:00,60.6,53.7,29.56,NW,315,0.0,2.2,78,0.00,,,0.00,VWS V14.01,2013-04-03 01:42:00,
2013-04-03 04:48:00,60.6,53.7,29.55,WNW,292,0.0,0.0,78,0.00,,,0.00,VWS V14.01,2013-04-03 01:48:00,
2013-04-03 04:53:00,60.8,53.9,29.55,NW,315,0.0,0.0,78,0.00,,,0.00,VWS V14.01,2013-04-03 01:53:00,
2013-04-03 04:58:00,60.4,53.5,29.55,NW,315,0.0,0.0,78,0.00,,,0.00,VWS V14.01,2013-04-03 01:58:00,
2013-04-03 05:03:00,60.4,53.5,29.55,NW,315,0.0,0.0,78,0.00,,,0.00,VWS V14.01,2013-04-03 02:03:00,
2013-04-03 05:08:00,60.4,53.5,29.55,NW,315,0.0,0.0,78,0.00,,,0.00,VWS V14.01,2013-04-03 02:08:00,
2013-04-03 05:14:00,60.3,53.4,29.56,NW,315,0.0,0.0,78,0.00,,,0.00,VWS V14.01,2013-04-03 02:14:00,
2013-04-03 05:19:00,60.1,53.2,29.57,NW,315,0.0,0.0,78,0.00,,,0.00,VWS V14.01,2013-04-03 02:19:00,
2013-04-03 05:24:00,60.1,53.2,29.56,NW,315,0.0,0.0,78,0.00,,,0.00,VWS V14.01,2013-04-03 02:24:00,
2013-04-03 05:30:00,60.1,53.2,29.54,NW,315,0.0,0.0,78,0.00,,,0.00,VWS V14.01,2013-04-03 02:30:00,
2013-04-03 05:35:00,59.7,52.8,29.53,NW,315,0.0,0.0,78,0.00,,,0.00,VWS V14.01,2013-04-03 02:35:00,
2013-04-03 05:40:00,59.5,53.0,29.54,NW,315,0.0,0.0,79,0.00,,,0.00,VWS V14.01,2013-04-03 02:40:00,
2013-04-03 05:45:00,59.4,52.9,29.55,WNW,292,0.0,0.0,79,0.00,,,0.00,VWS V14.01,2013-04-03 02:45:00,
2013-04-03 05:51:00,59.5,53.3,29.55,WNW,292,0.0,0.0,80,0.00,,,0.00,VWS V14.01,2013-04-03 02:51:00,
2013-04-03 05:57:00,59.5,53.3,29.57,WNW,292,0.0,0.0,80,0.00,,,0.00,VWS V14.01,2013-04-03 02:57:00,
2013-04-03 06:02:00,59.5,53.3,29.57,WSW,248,0.0,0.0,80,0.00,,,0.00,VWS V14.01,2013-04-03 03:02:00,
2013-04-03 06:08:00,59.5,53.3,29.57,WSW,248,0.0,0.0,80,0.00,,,0.00,VWS V14.01,2013-04-03 03:08:00,
2013-04-03 06:13:00,59.4,53.9,29.55,NNW,338,0.0,5.1,82,0.00,,,0.00,VWS V14.01,2013-04-03 03:13:00,
2013-04-03 06:18:00,59.2,53.7,29.55,NNW,338,0.0,0.0,82,0.00,,,0.00,VWS V14.01,2013-04-03 03:18:00,
2013-04-03 06:23:00,59.0,53.8,29.52,NNW,338,2.9,2.9,83,0.00,,,0.00,VWS V14.01,2013-04-03 03:23:00,
2013-04-03 06:28:00,58.8,54.3,29.51,NNW,338,0.0,0.0,85,0.00,,,0.00,VWS V14.01,2013-04-03 03:28:00,
2013-04-03 06:33:00,58.6,54.4,29.52,WSW,248,1.7,1.7,86,0.00,,,0.00,VWS V14.01,2013-04-03 03:33:00,
2013-04-03 06:38:00,58.6,54.4,29.53,SE,135,0.0,0.0,86,0.00,,,0.00,VWS V14.01,2013-04-03 03:38:00,
2013-04-03 06:44:00,58.6,54.4,29.54,West,270,6.7,6.7,86,0.00,,,0.00,VWS V14.01,2013-04-03 03:44:00,
2013-04-03 06:49:00,58.6,54.4,29.54,SW,225,0.0,0.0,86,0.00,,,0.00,VWS V14.01,2013-04-03 03:49:00,
2013-04-03 06:54:00,58.6,54.7,29.55,SW,225,4.2,4.2,87,0.00,,,0.00,VWS V14.01,2013-04-03 03:54:00,
2013-04-03 06:59:00,58.6,54.7,29.56,South,180,2.0,2.0,87,0.00,,,0.00,VWS V14.01,2013-04-03 03:59:00,
2013-04-03 07:00:00,58.6,54.7,29.55,SSE,158,0.0,2.0,87,0.00,,,0.00,VWS V14.01,2013-04-03 04:00:00,
2013-04-03 07:01:00,58.6,54.7,29.56,SSE,158,0.0,0.0,87,0.00,,,0.00,VWS V14.01,2013-04-03 04:01:00,
2013-04-03 07:06:00,58.5,54.6,29.56,South,180,0.0,0.0,87,0.00,,,0.00,VWS V14.01,2013-04-03 04:06:00,
2013-04-03 07:11:00,58.5,54.6,29.56,South,180,0.0,0.0,87,0.00,,,0.00,VWS V14.01,2013-04-03 04:11:00,
2013-04-03 07:16:00,58.5,54.9,29.55,NNW,338,6.7,8.0,88,0.00,,,0.00,VWS V14.01,2013-04-03 04:16:00,
2013-04-03 07:22:00,58.3,54.7,29.54,NNW,338,4.0,4.0,88,0.00,,,0.00,VWS V14.01,2013-04-03 04:22:00,
2013-04-03 07:27:00,58.3,54.7,29.55,NNW,338,4.4,4.4,88,0.00,,,0.00,VWS V14.01,2013-04-03 04:27:00,
2013-04-03 07:32:00,58.3,54.7,29.55,NW,315,4.0,4.0,88,0.00,,,0.00,VWS V14.01,2013-04-03 04:32:00,
2013-04-03 07:37:00,58.3,54.7,29.55,NNW,338,3.1,3.1,88,0.00,,,0.00,VWS V14.01,2013-04-03 04:37:00,
2013-04-03 07:42:00,58.5,54.9,29.55,North,0,4.2,4.2,88,0.00,,,0.00,VWS V14.01,2013-04-03 04:42:00,
2013-04-03 07:47:00,58.6,55.0,29.55,North,0,2.6,2.6,88,0.00,,,0.00,VWS V14.01,2013-04-03 04:47:00,
2013-04-03 07:52:00,58.6,55.0,29.54,NE,45,1.7,1.7,88,0.00,,,0.00,VWS V14.01,2013-04-03 04:52:00,
2013-04-03 07:57:00,58.6,55.0,29.55,NE,45,0.8,0.8,88,0.00,,,0.00,VWS V14.01,2013-04-03 04:57:00,
2013-04-03 08:03:00,58.8,55.2,29.55,NNW,338,4.4,4.4,88,0.00,,,0.00,VWS V14.01,2013-04-03 05:03:00,
2013-04-03 08:08:00,58.8,55.2,29.54,WSW,248,3.5,3.5,88,0.00,,,0.00,VWS V14.01,2013-04-03 05:08:00,
2013-04-03 08:13:00,58.6,55.0,29.54,West,270,6.7,7.8,88,0.00,,,0.00,VWS V14.01,2013-04-03 05:13:00,
2013-04-03 08:18:00,59.0,54.8,29.55,West,270,7.6,8.9,86,0.00,,,0.00,VWS V14.01,2013-04-03 05:18:00,
2013-04-03 08:23:00,59.4,54.9,29.54,West,270,8.9,8.9,85,0.00,,,0.00,VWS V14.01,2013-04-03 05:23:00,
2013-04-03 08:28:00,59.4,54.9,29.54,West,270,6.4,11.1,85,0.02,,,0.02,VWS V14.01,2013-04-03 05:28:00,
2013-04-03 08:33:00,59.5,55.3,29.55,West,270,9.8,9.8,86,0.02,,,0.02,VWS V14.01,2013-04-03 05:33:00,
2013-04-03 08:38:00,59.4,55.2,29.55,West,270,8.0,8.0,86,0.02,,,0.02,VWS V14.01,2013-04-03 05:38:00,
2013-04-03 08:43:00,59.4,54.9,29.55,West,270,7.6,7.6,85,0.02,,,0.02,VWS V14.01,2013-04-03 05:43:00,
2013-04-03 08:48:00,59.4,54.9,29.55,WNW,292,6.7,6.7,85,0.02,,,0.02,VWS V14.01,2013-04-03 05:48:00,
2013-04-03 08:54:00,59.2,54.3,29.55,WNW,292,6.9,6.9,84,0.02,,,0.02,VWS V14.01,2013-04-03 05:54:00,
2013-04-03 08:59:00,59.0,53.8,29.55,West,270,10.2,10.9,83,0.02,,,0.02,VWS V14.01,2013-04-03 05:59:00,
2013-04-03 09:04:00,58.8,53.0,29.55,West,270,9.3,12.5,81,0.02,,,0.02,VWS V14.01,2013-04-03 06:04:00,
2013-04-03 09:09:00,58.8,51.9,29.55,West,270,13.1,13.1,78,0.02,,,0.02,VWS V14.01,2013-04-03 06:09:00,
2013-04-03 09:14:00,59.0,51.1,29.55,NNW,338,11.6,12.7,75,0.02,,,0.02,VWS V14.01,2013-04-03 06:14:00,
2013-04-03 09:19:00,59.2,50.9,29.55,WNW,292,13.1,13.1,74,0.02,,,0.02,VWS V14.01,2013-04-03 06:19:00,
2013-04-03 09:24:00,59.4,50.3,29.55,West,270,11.6,13.6,72,0.02,,,0.02,VWS V14.01,2013-04-03 06:24:00,
2013-04-03 09:29:00,59.4,50.0,29.55,West,270,10.7,10.7,71,0.00,,,0.02,VWS V14.01,2013-04-03 06:29:00,
2013-04-03 09:35:00,59.4,49.6,29.56,North,0,9.1,9.1,70,0.00,,,0.02,VWS V14.01,2013-04-03 06:35:00,
2013-04-03 09:40:00,59.4,49.6,29.56,WNW,292,9.3,9.3,70,0.00,,,0.02,VWS V14.01,2013-04-03 06:40:00,
2013-04-03 09:45:00,59.5,49.3,29.56,WNW,292,9.8,11.6,69,0.00,,,0.02,VWS V14.01,2013-04-03 06:45:00,
2013-04-03 09:50:00,60.1,48.7,29.55,West,270,9.8,12.5,66,0.00,,,0.02,VWS V14.01,2013-04-03 06:50:00,
2013-04-03 09:55:00,60.3,48.5,29.55,WNW,292,6.7,9.1,65,0.00,,,0.02,VWS V14.01,2013-04-03 06:55:00,
2013-04-03 10:00:00,60.8,48.5,29.55,West,270,7.1,8.2,64,0.00,,,0.02,VWS V14.01,2013-04-03 07:00:00,
2013-04-03 10:05:00,60.8,47.7,29.55,WNW,292,13.6,13.6,62,0.00,,,0.02,VWS V14.01,2013-04-03 07:05:00,
2013-04-03 10:10:00,60.8,48.1,29.56,West,270,6.2,7.6,63,0.00,,,0.02,VWS V14.01,2013-04-03 07:10:00,
2013-04-03 10:15:00,61.0,47.4,29.55,WNW,292,8.7,12.3,61,0.00,,,0.02,VWS V14.01,2013-04-03 07:15:00,
2013-04-03 10:20:00,61.2,46.7,29.55,West,270,11.1,11.1,59,0.00,,,0.02,VWS V14.01,2013-04-03 07:20:00,
2013-04-03 10:25:00,61.3,47.3,29.55,NNW,338,6.4,6.4,60,0.00,,,0.02,VWS V14.01,2013-04-03 07:25:00,
2013-04-03 10:31:00,61.3,45.9,29.55,West,270,6.7,6.7,57,0.00,,,0.02,VWS V14.01,2013-04-03 07:31:00,
2013-04-03 10:36:00,61.5,44.7,29.55,NNW,338,7.1,9.8,54,0.00,,,0.02,VWS V14.01,2013-04-03 07:36:00,
2013-04-03 10:42:00,61.7,44.4,29.55,NW,315,11.1,11.1,53,0.00,,,0.02,VWS V14.01,2013-04-03 07:42:00,
2013-04-03 10:47:00,61.9,45.0,29.55,West,270,3.5,8.5,54,0.00,,,0.02,VWS V14.01,2013-04-03 07:47:00,
2013-04-03 10:52:00,61.9,44.1,29.55,West,270,10.7,10.7,52,0.00,,,0.02,VWS V14.01,2013-04-03 07:52:00,
2013-04-03 10:57:00,61.9,42.5,29.56,West,270,10.9,12.0,49,0.00,,,0.02,VWS V14.01,2013-04-03 07:57:00,
2013-04-03 11:02:00,62.1,42.7,29.56,West,270,9.1,9.1,49,0.00,,,0.02,VWS V14.01,2013-04-03 08:02:00,
2013-04-03 11:08:00,62.6,43.7,29.56,NW,315,6.9,7.1,50,0.00,,,0.02,VWS V14.01,2013-04-03 08:08:00,
2013-04-03 11:13:00,63.5,43.4,29.56,West,270,8.0,9.3,48,0.00,,,0.02,VWS V14.01,2013-04-03 08:13:00,
2013-04-03 11:18:00,63.5,42.9,29.56,West,270,8.0,8.0,47,0.00,,,0.02,VWS V14.01,2013-04-03 08:18:00,
2013-04-03 11:23:00,63.7,43.1,29.56,WSW,248,8.7,8.7,47,0.00,,,0.02,VWS V14.01,2013-04-03 08:23:00,
2013-04-03 11:28:00,63.5,42.9,29.56,SSW,202,8.0,8.0,47,0.00,,,0.02,VWS V14.01,2013-04-03 08:28:00,
2013-04-03 11:34:00,63.5,42.9,29.57,WSW,248,5.5,5.5,47,0.00,,,0.02,VWS V14.01,2013-04-03 08:34:00,
2013-04-03 11:39:00,63.9,43.3,29.57,WNW,292,8.0,8.0,47,0.00,,,0.02,VWS V14.01,2013-04-03 08:39:00,
2013-04-03 11:44:00,64.0,41.0,29.57,West,270,3.1,10.2,43,0.00,,,0.02,VWS V14.01,2013-04-03 08:44:00,
2013-04-03 11:49:00,64.0,41.0,29.57,West,270,8.9,8.9,43,0.00,,,0.02,VWS V14.01,2013-04-03 08:49:00,
2013-04-03 11:54:00,64.0,40.4,29.57,West,270,5.5,5.5,42,0.00,,,0.02,VWS V14.01,2013-04-03 08:54:00,
2013-04-03 11:59:00,64.0,39.8,29.58,NNW,338,8.0,8.0,41,0.00,,,0.02,VWS V14.01,2013-04-03 08:59:00,
2013-04-03 12:04:00,63.9,39.1,29.58,WSW,248,12.9,12.9,40,0.00,,,0.02,VWS V14.01,2013-04-03 09:04:00,
2013-04-03 12:09:00,63.9,39.1,29.57,West,270,9.6,11.4,40,0.00,,,0.02,VWS V14.01,2013-04-03 09:09:00,
2013-04-03 12:14:00,64.0,39.8,29.57,West,270,9.6,9.6,41,0.00,,,0.02,VWS V14.01,2013-04-03 09:14:00,
2013-04-03 12:20:00,64.2,40.0,29.56,WNW,292,8.0,9.6,41,0.00,,,0.02,VWS V14.01,2013-04-03 09:20:00,
2013-04-03 12:25:00,64.4,41.4,29.56,WNW,292,6.2,10.0,43,0.00,,,0.02,VWS V14.01,2013-04-03 09:25:00,
2013-04-03 12:30:00,64.4,41.4,29.56,West,270,8.0,8.0,43,0.00,,,0.02,VWS V14.01,2013-04-03 09:30:00,
2013-04-03 12:35:00,64.2,40.6,29.56,WNW,292,11.6,11.8,42,0.00,,,0.02,VWS V14.01,2013-04-03 09:35:00,
2013-04-03 12:40:00,64.2,40.6,29.55,WSW,248,8.9,16.3,42,0.00,,,0.02,VWS V14.01,2013-04-03 09:40:00,
2013-04-03 12:45:00,64.6,40.3,29.55,SW,225,10.7,10.7,41,0.00,,,0.02,VWS V14.01,2013-04-03 09:45:00,
2013-04-03 12:50:00,65.5,40.5,29.55,WNW,292,7.1,10.7,40,0.00,,,0.02,VWS V14.01,2013-04-03 09:50:00,
2013-04-03 12:55:00,66.2,41.2,29.55,WSW,248,4.0,7.3,40,0.00,,,0.02,VWS V14.01,2013-04-03 09:55:00,
2013-04-03 13:00:00,66.7,40.3,29.55,West,270,10.9,11.6,38,0.00,,,0.02,VWS V14.01,2013-04-03 10:00:00,
2013-04-03 13:05:00,66.7,40.3,29.55,WSW,248,13.4,15.8,38,0.00,,,0.02,VWS V14.01,2013-04-03 10:05:00,
2013-04-03 13:10:00,66.9,40.5,29.55,WSW,248,8.5,12.3,38,0.00,,,0.02,VWS V14.01,2013-04-03 10:10:00,
2013-04-03 13:16:00,67.3,40.8,29.55,SSW,202,8.0,9.6,38,0.00,,,0.02,VWS V14.01,2013-04-03 10:16:00,
2013-04-03 13:21:00,67.5,40.3,29.55,West,270,12.9,12.9,37,0.00,,,0.02,VWS V14.01,2013-04-03 10:21:00,
2013-04-03 13:26:00,67.8,40.6,29.55,SSW,202,9.1,9.1,37,0.00,,,0.02,VWS V14.01,2013-04-03 10:26:00,
2013-04-03 13:31:00,67.5,40.3,29.56,NW,315,12.0,12.0,37,0.00,,,0.02,VWS V14.01,2013-04-03 10:31:00,
2013-04-03 13:36:00,67.1,40.6,29.56,WSW,248,12.9,12.9,38,0.00,,,0.02,VWS V14.01,2013-04-03 10:36:00,
2013-04-03 13:41:00,66.9,41.1,29.56,SSW,202,10.9,10.9,39,0.00,,,0.02,VWS V14.01,2013-04-03 10:41:00,
2013-04-03 13:46:00,66.7,41.0,29.56,WNW,292,10.0,10.0,39,0.00,,,0.02,VWS V14.01,2013-04-03 10:46:00,
2013-04-03 13:51:00,67.1,40.6,29.56,NW,315,5.5,5.5,38,0.00,,,0.02,VWS V14.01,2013-04-03 10:51:00,
2013-04-03 13:56:00,67.3,41.5,29.56,SW,225,7.8,11.1,39,0.00,,,0.02,VWS V14.01,2013-04-03 10:56:00,
2013-04-03 14:02:00,67.6,41.1,29.56,West,270,3.5,9.1,38,0.00,,,0.02,VWS V14.01,2013-04-03 11:02:00,
2013-04-03 14:07:00,67.6,40.4,29.56,WNW,292,3.5,6.0,37,0.00,,,0.02,VWS V14.01,2013-04-03 11:07:00,
2013-04-03 14:12:00,68.0,41.4,29.55,NW,315,7.6,7.6,38,0.00,,,0.02,VWS V14.01,2013-04-03 11:12:00,
2013-04-03 14:17:00,68.5,41.9,29.55,West,270,6.2,6.2,38,0.00,,,0.02,VWS V14.01,2013-04-03 11:17:00,
2013-04-03 14:22:00,68.9,40.8,29.55,West,270,5.3,5.3,36,0.00,,,0.02,VWS V14.01,2013-04-03 11:22:00,
2013-04-03 14:27:00,68.7,40.7,29.55,WSW,248,5.8,11.8,36,0.00,,,0.02,VWS V14.01,2013-04-03 11:27:00,
2013-04-03 14:32:00,68.7,39.9,29.54,North,0,5.8,10.5,35,0.00,,,0.02,VWS V14.01,2013-04-03 11:32:00,
2013-04-03 14:37:00,68.2,38.8,29.54,WSW,248,9.3,17.0,34,0.00,,,0.02,VWS V14.01,2013-04-03 11:37:00,
2013-04-03 14:42:00,68.4,39.7,29.54,West,270,11.8,11.8,35,0.00,,,0.02,VWS V14.01,2013-04-03 11:42:00,
2013-04-03 14:47:00,68.9,39.4,29.55,WSW,248,9.3,9.3,34,0.00,,,0.02,VWS V14.01,2013-04-03 11:47:00,
2013-04-03 14:53:00,68.7,39.9,29.55,West,270,11.8,12.3,35,0.00,,,0.02,VWS V14.01,2013-04-03 11:53:00,
2013-04-03 14:58:00,68.5,39.8,29.55,SW,225,7.6,10.7,35,0.00,,,0.02,VWS V14.01,2013-04-03 11:58:00,
2013-04-03 15:03:00,68.5,40.5,29.55,West,270,0.0,0.0,36,0.00,,,0.02,VWS V14.01,2013-04-03 12:03:00,
2013-04-03 15:08:00,68.0,40.0,29.55,NNW,338,4.6,9.1,36,0.00,,,0.02,VWS V14.01,2013-04-03 12:08:00,
2013-04-03 15:13:00,67.6,40.4,29.55,South,180,4.6,4.6,37,0.00,,,0.02,VWS V14.01,2013-04-03 12:13:00,
2013-04-03 15:18:00,67.6,40.4,29.55,SSW,202,10.2,10.2,37,0.00,,,0.02,VWS V14.01,2013-04-03 12:18:00,
2013-04-03 15:23:00,67.6,41.1,29.55,SSW,202,5.3,5.3,38,0.00,,,0.02,VWS V14.01,2013-04-03 12:23:00,
2013-04-03 15:29:00,67.6,41.1,29.55,NW,315,4.0,4.0,38,0.00,,,0.02,VWS V14.01,2013-04-03 12:29:00,
2013-04-03 15:34:00,67.6,41.1,29.55,SW,225,3.1,3.1,38,0.00,,,0.02,VWS V14.01,2013-04-03 12:34:00,
2013-04-03 15:39:00,68.0,41.4,29.55,West,270,0.0,0.0,38,0.00,,,0.02,VWS V14.01,2013-04-03 12:39:00,
2013-04-03 15:44:00,68.0,39.3,29.55,West,270,10.7,11.8,35,0.00,,,0.02,VWS V14.01,2013-04-03 12:44:00,
2013-04-03 15:49:00,67.6,40.4,29.55,WNW,292,4.4,8.7,37,0.00,,,0.02,VWS V14.01,2013-04-03 12:49:00,
2013-04-03 15:54:00,67.6,40.4,29.55,SW,225,14.5,16.5,37,0.00,,,0.02,VWS V14.01,2013-04-03 12:54:00,
2013-04-03 15:59:00,67.1,41.3,29.55,SW,225,3.3,6.2,39,0.00,,,0.02,VWS V14.01,2013-04-03 12:59:00,
2013-04-03 16:04:00,67.5,41.7,29.55,West,270,4.4,8.2,39,0.00,,,0.02,VWS V14.01,2013-04-03 13:04:00,
2013-04-03 16:09:00,67.3,41.5,29.55,West,270,7.8,8.5,39,0.00,,,0.02,VWS V14.01,2013-04-03 13:09:00,
2013-04-03 16:14:00,67.3,41.5,29.55,South,180,0.8,4.9,39,0.00,,,0.02,VWS V14.01,2013-04-03 13:14:00,
2013-04-03 16:19:00,67.6,41.1,29.55,NW,315,4.9,4.9,38,0.00,,,0.02,VWS V14.01,2013-04-03 13:19:00,
2013-04-03 16:24:00,67.6,41.1,29.55,West,270,9.3,11.1,38,0.00,,,0.02,VWS V14.01,2013-04-03 13:24:00,
2013-04-03 16:29:00,67.5,41.0,29.55,WNW,292,12.9,12.9,38,0.00,,,0.02,VWS V14.01,2013-04-03 13:29:00,
2013-04-03 16:35:00,66.7,41.0,29.55,West,270,6.2,8.5,39,0.00,,,0.02,VWS V14.01,2013-04-03 13:35:00,
2013-04-03 16:40:00,66.4,41.3,29.55,WSW,248,8.0,8.7,40,0.00,,,0.02,VWS V14.01,2013-04-03 13:40:00,
2013-04-03 16:45:00,66.7,42.9,29.55,West,270,1.7,11.1,42,0.00,,,0.02,VWS V14.01,2013-04-03 13:45:00,
2013-04-03 16:50:00,66.7,42.9,29.55,SE,135,1.3,1.3,42,0.00,,,0.02,VWS V14.01,2013-04-03 13:50:00,
2013-04-03 16:55:00,67.3,42.8,29.56,WNW,292,2.9,2.9,41,0.00,,,0.02,VWS V14.01,2013-04-03 13:55:00,
2013-04-03 17:01:00,66.9,43.0,29.55,WNW,292,9.3,13.4,42,0.00,,,0.02,VWS V14.01,2013-04-03 14:01:00,
2013-04-03 17:07:00,66.6,43.4,29.56,WSW,248,12.7,12.7,43,0.00,,,0.02,VWS V14.01,2013-04-03 14:07:00,
2013-04-03 17:12:00,66.4,43.2,29.56,SW,225,3.8,6.2,43,0.00,,,0.02,VWS V14.01,2013-04-03 14:12:00,
2013-04-03 17:17:00,66.7,43.5,29.56,WSW,248,4.9,4.9,43,0.00,,,0.02,VWS V14.01,2013-04-03 14:17:00,
2013-04-03 17:22:00,66.4,41.3,29.56,WNW,292,11.4,12.3,40,0.00,,,0.02,VWS V14.01,2013-04-03 14:22:00,
2013-04-03 17:27:00,66.4,42.6,29.56,South,180,13.1,13.1,42,0.00,,,0.02,VWS V14.01,2013-04-03 14:27:00,
2013-04-03 17:32:00,65.8,43.3,29.57,West,270,8.5,10.2,44,0.00,,,0.02,VWS V14.01,2013-04-03 14:32:00,
2013-04-03 17:37:00,65.7,43.8,29.57,NNW,338,7.3,7.3,45,0.00,,,0.02,VWS V14.01,2013-04-03 14:37:00,
2013-04-03 17:42:00,65.5,43.6,29.57,WSW,248,11.1,11.1,45,0.00,,,0.02,VWS V14.01,2013-04-03 14:42:00,
2013-04-03 17:47:00,65.1,43.8,29.57,West,270,15.4,15.4,46,0.00,,,0.02,VWS V14.01,2013-04-03 14:47:00,
2013-04-03 17:53:00,64.6,44.5,29.57,WNW,292,12.3,12.3,48,0.00,,,0.02,VWS V14.01,2013-04-03 14:53:00,
2013-04-03 17:58:00,64.6,44.5,29.57,NW,315,7.6,9.1,48,0.00,,,0.02,VWS V14.01,2013-04-03 14:58:00,
2013-04-03 18:03:00,64.8,44.6,29.57,WNW,292,11.6,11.6,48,0.00,,,0.02,VWS V14.01,2013-04-03 15:03:00,
2013-04-03 18:08:00,64.4,44.3,29.57,West,270,16.1,16.1,48,0.00,,,0.02,VWS V14.01,2013-04-03 15:08:00,
2013-04-03 18:13:00,63.9,44.3,29.58,SW,225,14.3,14.3,49,0.00,,,0.02,VWS V14.01,2013-04-03 15:13:00,
2013-04-03 18:18:00,63.3,44.8,29.58,WSW,248,2.9,7.6,51,0.00,,,0.02,VWS V14.01,2013-04-03 15:18:00,
2013-04-03 18:23:00,62.6,44.2,29.58,WSW,248,10.9,11.6,51,0.00,,,0.02,VWS V14.01,2013-04-03 15:23:00,
2013-04-03 18:28:00,62.4,44.5,29.58,West,270,1.3,1.3,52,0.00,,,0.02,VWS V14.01,2013-04-03 15:28:00,
2013-04-03 18:34:00,62.1,45.2,29.58,WNW,292,11.1,11.1,54,0.00,,,0.02,VWS V14.01,2013-04-03 15:34:00,
2013-04-03 18:39:00,61.9,44.6,29.58,West,270,15.6,15.6,53,0.00,,,0.02,VWS V14.01,2013-04-03 15:39:00,
2013-04-03 18:44:00,61.7,44.9,29.58,West,270,11.6,11.6,54,0.00,,,0.02,VWS V14.01,2013-04-03 15:44:00,
2013-04-03 18:49:00,61.3,44.0,29.57,West,270,9.8,9.8,53,0.00,,,0.02,VWS V14.01,2013-04-03 15:49:00,
2013-04-03 18:54:00,61.2,43.9,29.57,SSE,158,15.2,16.5,53,0.00,,,0.02,VWS V14.01,2013-04-03 15:54:00,
2013-04-03 18:59:00,60.8,43.5,29.57,SSW,202,8.2,19.0,53,0.00,,,0.02,VWS V14.01,2013-04-03 15:59:00,
2013-04-03 19:04:00,60.4,43.2,29.57,West,270,10.7,17.2,53,0.00,,,0.02,VWS V14.01,2013-04-03 16:04:00,
2013-04-03 19:09:00,60.1,43.4,29.57,WSW,248,17.2,17.4,54,0.00,,,0.02,VWS V14.01,2013-04-03 16:09:00,
2013-04-03 19:15:00,59.9,43.2,29.57,West,270,18.7,18.7,54,0.00,,,0.02,VWS V14.01,2013-04-03 16:15:00,
2013-04-03 19:20:00,59.7,43.0,29.58,WNW,292,16.7,17.0,54,0.00,,,0.02,VWS V14.01,2013-04-03 16:20:00,
2013-04-03 19:25:00,59.5,43.3,29.57,WSW,248,7.1,10.2,55,0.00,,,0.02,VWS V14.01,2013-04-03 16:25:00,
2013-04-03 19:30:00,59.7,42.0,29.57,West,270,12.5,14.0,52,0.00,,,0.02,VWS V14.01,2013-04-03 16:30:00,
2013-04-03 19:35:00,59.9,43.2,29.58,NW,315,18.3,18.3,54,0.00,,,0.02,VWS V14.01,2013-04-03 16:35:00,
2013-04-03 19:40:00,59.7,43.0,29.58,West,270,15.6,15.6,54,0.00,,,0.02,VWS V14.01,2013-04-03 16:40:00,
2013-04-03 19:45:00,59.5,43.3,29.58,West,270,10.9,15.4,55,0.00,,,0.02,VWS V14.01,2013-04-03 16:45:00,
2013-04-03 19:51:00,59.5,43.8,29.58,NW,315,16.3,16.3,56,0.00,,,0.02,VWS V14.01,2013-04-03 16:51:00,
2013-04-03 19:56:00,59.4,44.1,29.58,West,270,15.6,19.4,57,0.00,,,0.02,VWS V14.01,2013-04-03 16:56:00,
2013-04-03 20:01:00,59.4,44.1,29.59,WSW,248,16.3,16.3,57,0.00,,,0.02,VWS V14.01,2013-04-03 17:01:00,
2013-04-03 20:06:00,59.4,43.7,29.59,NW,315,16.3,16.5,56,0.00,,,0.02,VWS V14.01,2013-04-03 17:06:00,
2013-04-03 20:12:00,59.4,44.1,29.59,West,270,16.7,16.7,57,0.00,,,0.02,VWS V14.01,2013-04-03 17:12:00,
2013-04-03 20:17:00,59.2,44.0,29.59,West,270,13.8,17.8,57,0.00,,,0.02,VWS V14.01,2013-04-03 17:17:00,
2013-04-03 20:22:00,59.0,43.8,29.59,West,270,15.2,15.2,57,0.00,,,0.02,VWS V14.01,2013-04-03 17:22:00,
2013-04-03 20:27:00,59.0,44.2,29.60,West,270,13.4,13.4,58,0.00,,,0.02,VWS V14.01,2013-04-03 17:27:00,
2013-04-03 20:33:00,59.0,44.2,29.60,West,270,8.9,11.8,58,0.00,,,0.02,VWS V14.01,2013-04-03 17:33:00,
2013-04-03 20:38:00,58.6,43.8,29.61,WSW,248,8.0,14.5,58,0.00,,,0.02,VWS V14.01,2013-04-03 17:38:00,
2013-04-03 20:43:00,58.6,43.8,29.61,NW,315,9.3,14.0,58,0.00,,,0.02,VWS V14.01,2013-04-03 17:43:00,
2013-04-03 20:48:00,58.6,43.8,29.62,WSW,248,12.3,12.3,58,0.00,,,0.02,VWS V14.01,2013-04-03 17:48:00,
2013-04-03 20:53:00,58.6,44.3,29.63,West,270,5.3,5.3,59,0.00,,,0.02,VWS V14.01,2013-04-03 17:53:00,
2013-04-03 20:58:00,58.6,44.7,29.63,WNW,292,9.8,9.8,60,0.00,,,0.02,VWS V14.01,2013-04-03 17:58:00,
2013-04-03 21:04:00,58.5,44.6,29.63,West,270,5.8,9.3,60,0.00,,,0.02,VWS V14.01,2013-04-03 18:04:00,
2013-04-03 21:09:00,58.3,44.5,29.63,West,270,3.5,11.8,60,0.00,,,0.02,VWS V14.01,2013-04-03 18:09:00,
2013-04-03 21:14:00,58.3,44.5,29.63,WNW,292,11.1,13.1,60,0.00,,,0.02,VWS V14.01,2013-04-03 18:14:00,
2013-04-03 21:19:00,58.5,44.2,29.63,West,270,10.5,10.5,59,0.00,,,0.02,VWS V14.01,2013-04-03 18:19:00,
2013-04-03 21:24:00,58.5,43.8,29.63,West,270,13.8,13.8,58,0.00,,,0.02,VWS V14.01,2013-04-03 18:24:00,
2013-04-03 21:29:00,58.5,43.8,29.64,WSW,248,11.8,12.5,58,0.00,,,0.02,VWS V14.01,2013-04-03 18:29:00,
2013-04-03 21:34:00,58.5,43.8,29.64,WSW,248,10.9,10.9,58,0.00,,,0.02,VWS V14.01,2013-04-03 18:34:00,
2013-04-03 21:40:00,58.5,43.8,29.64,WSW,248,10.9,10.9,58,0.00,,,0.02,VWS V14.01,2013-04-03 18:40:00,
2013-04-03 21:45:00,58.3,44.0,29.65,West,270,10.2,13.1,59,0.00,,,0.02,VWS V14.01,2013-04-03 18:45:00,
2013-04-03 21:51:00,58.1,43.8,29.65,WNW,292,10.2,12.9,59,0.00,,,0.02,VWS V14.01,2013-04-03 18:51:00,
2013-04-03 21:56:00,58.1,43.4,29.65,West,270,6.0,13.8,58,0.00,,,0.02,VWS V14.01,2013-04-03 18:56:00,
2013-04-03 22:01:00,58.1,43.4,29.65,West,270,9.8,9.8,58,0.00,,,0.02,VWS V14.01,2013-04-03 19:01:00,
2013-04-03 22:06:00,58.1,43.4,29.65,WNW,292,10.5,10.5,58,0.00,,,0.02,VWS V14.01,2013-04-03 19:06:00,
2013-04-03 22:11:00,58.1,43.4,29.65,WNW,292,10.7,11.1,58,0.00,,,0.02,VWS V14.01,2013-04-03 19:11:00,
2013-04-03 22:16:00,58.1,42.9,29.65,WNW,292,8.5,10.5,57,0.00,,,0.02,VWS V14.01,2013-04-03 19:16:00,
2013-04-03 22:22:00,58.1,42.9,29.65,West,270,7.3,7.3,57,0.00,,,0.02,VWS V14.01,2013-04-03 19:22:00,
2013-04-03 22:27:00,57.9,42.7,29.66,NW,315,9.6,9.6,57,0.00,,,0.02,VWS V14.01,2013-04-03 19:27:00,
2013-04-03 22:32:00,58.1,42.9,29.65,WSW,248,11.8,12.3,57,0.00,,,0.02,VWS V14.01,2013-04-03 19:32:00,
2013-04-03 22:37:00,58.1,42.5,29.65,West,270,8.2,10.5,56,0.00,,,0.02,VWS V14.01,2013-04-03 19:37:00,
2013-04-03 22:42:00,58.1,42.9,29.65,West,270,6.7,6.7,57,0.00,,,0.02,VWS V14.01,2013-04-03 19:42:00,
2013-04-03 22:48:00,58.1,42.9,29.66,West,270,13.8,13.8,57,0.00,,,0.02,VWS V14.01,2013-04-03 19:48:00,
2013-04-03 22:53:00,58.1,42.5,29.66,WNW,292,8.9,8.9,56,0.00,,,0.02,VWS V14.01,2013-04-03 19:53:00,
2013-04-03 22:58:00,58.1,42.5,29.66,WSW,248,12.0,13.8,56,0.00,,,0.02,VWS V14.01,2013-04-03 19:58:00,
2013-04-03 23:04:00,58.3,42.7,29.66,West,270,7.3,10.9,56,0.00,,,0.02,VWS V14.01,2013-04-03 20:04:00,
2013-04-03 23:09:00,58.3,42.2,29.66,SSW,202,9.8,10.5,55,0.00,,,0.02,VWS V14.01,2013-04-03 20:09:00,
2013-04-03 23:15:00,58.3,42.2,29.66,West,270,8.0,10.7,55,0.00,,,0.02,VWS V14.01,2013-04-03 20:15:00,
2013-04-03 23:20:00,58.3,41.7,29.66,West,270,9.1,12.5,54,0.00,,,0.02,VWS V14.01,2013-04-03 20:20:00,
2013-04-03 23:25:00,58.1,42.0,29.66,WSW,248,9.8,9.8,55,0.00,,,0.02,VWS V14.01,2013-04-03 20:25:00,
2013-04-03 23:30:00,58.1,42.0,29.66,WNW,292,11.4,11.4,55,0.00,,,0.02,VWS V14.01,2013-04-03 20:30:00,
2013-04-03 23:36:00,58.1,42.0,29.66,WSW,248,9.6,13.4,55,0.00,,,0.02,VWS V14.01,2013-04-03 20:36:00,
2013-04-03 23:41:00,58.1,42.0,29.66,West,270,8.7,11.1,55,0.00,,,0.02,VWS V14.01,2013-04-03 20:41:00,
2013-04-03 23:46:00,58.1,42.0,29.66,NW,315,11.6,11.6,55,0.00,,,0.02,VWS V14.01,2013-04-03 20:46:00,
2013-04-03 23:51:00,58.1,42.0,29.66,WNW,292,6.2,12.9,55,0.00,,,0.02,VWS V14.01,2013-04-03 20:51:00,
2013-04-03 23:57:00,58.1,42.5,29.66,West,270,6.2,12.0,56,0.00,,,0.02,VWS V14.01,2013-04-03 20:57:00,